createdAt,value
2017-11-28T11:24:01.933Z,90.99
2017-11-28T11:25:04.251Z,90.42
2017-11-28T11:26:07.993Z,90.33
2017-11-28T11:27:11.851Z,90.71
2017-11-28T11:28:15.795Z,90.99
2017-11-28T11:29:22.343Z,91.28
2017-11-28T11:30:26.759Z,90.52
2017-11-28T11:31:30.388Z,90.33
2017-11-28T11:32:33.690Z,90.90
2017-11-28T11:33:37.867Z,90.90
2017-11-28T11:34:43.583Z,90.99
2017-11-28T11:35:47.537Z,90.71
2017-11-28T11:36:51.371Z,90.90
2017-11-28T11:37:54.601Z,90.71
2017-11-28T11:38:57.965Z,90.52
2017-11-28T11:40:01.333Z,91.09
2017-11-28T11:41:04.920Z,90.90
2017-11-28T11:42:08.465Z,90.52
2017-11-28T11:43:11.795Z,90.23
2017-11-28T11:44:15.079Z,90.52
2017-11-28T11:45:18.415Z,90.52
2017-11-28T11:46:21.778Z,90.61
2017-11-28T11:47:26.559Z,90.14
2017-11-28T11:48:30.900Z,90.52
2017-11-28T11:49:34.151Z,90.52
2017-11-28T11:50:37.473Z,90.80
2017-11-28T11:51:40.783Z,90.33
2017-11-28T11:52:44.076Z,90.23
2017-11-28T11:53:47.403Z,90.05
2017-11-28T11:54:50.662Z,89.67
2017-11-28T11:55:54.013Z,89.86
2017-11-28T11:56:57.379Z,89.57
2017-11-28T11:58:01.112Z,89.76
2017-11-28T11:59:04.572Z,89.76
2017-11-28T12:00:08.039Z,89.57
2017-11-28T12:01:11.500Z,89.86
2017-11-28T12:02:14.968Z,89.67
2017-11-28T12:03:18.358Z,89.86
2017-11-28T12:04:22.352Z,89.76
2017-11-28T12:05:25.550Z,89.47
2017-11-28T12:06:29.026Z,89.28
2017-11-28T12:07:32.144Z,89.19
2017-11-28T12:08:35.777Z,89.57
2017-11-28T12:09:39.115Z,89.67
2017-11-28T12:10:42.726Z,89.47
2017-11-28T12:11:45.927Z,89.47
2017-11-28T12:12:49.368Z,89.19
2017-11-28T12:13:52.667Z,89.47
2017-11-28T12:14:56.105Z,89.57
2017-11-28T12:15:59.380Z,89.19
2017-11-28T12:17:03.178Z,89.47
2017-11-28T12:18:06.511Z,89.28
2017-11-28T12:19:09.853Z,89.38
2017-11-28T12:20:13.281Z,89.57
2017-11-28T12:21:17.816Z,89.47
2017-11-28T12:22:21.197Z,88.90
2017-11-28T12:23:24.532Z,89.00
2017-11-28T12:24:28.109Z,89.09
2017-11-28T12:25:31.379Z,88.81
2017-11-28T12:26:36.453Z,89.09
2017-11-28T12:27:39.775Z,89.09
